sensor_id;sensor_type;location;lat;lon;timestamp;temperature;humidity
70807;DHT22;58882;52.170;5.386;2022-08-23T00:02:52;24.20;49.50
70807;DHT22;58882;52.170;5.386;2022-08-23T00:05:33;24.10;49.50
70807;DHT22;58882;52.170;5.386;2022-08-23T00:08:20;24.10;49.60
70807;DHT22;58882;52.170;5.386;2022-08-23T00:11:00;24.10;49.60
70807;DHT22;58882;52.170;5.386;2022-08-23T00:13:47;24.10;49.60
70807;DHT22;58882;52.170;5.386;2022-08-23T00:16:27;24.10;49.70
70807;DHT22;58882;52.170;5.386;2022-08-23T00:19:18;24.10;49.70
70807;DHT22;58882;52.170;5.386;2022-08-23T00:22:06;24.00;49.70
70807;DHT22;58882;52.170;5.386;2022-08-23T00:25:00;24.00;49.80
70807;DHT22;58882;52.170;5.386;2022-08-23T00:27:40;24.10;49.80
70807;DHT22;58882;52.170;5.386;2022-08-23T00:30:27;24.00;49.80
70807;DHT22;58882;52.170;5.386;2022-08-23T00:33:07;24.00;49.80
70807;DHT22;58882;52.170;5.386;2022-08-23T00:35:54;24.00;49.90
70807;DHT22;58882;52.170;5.386;2022-08-23T00:38:34;24.00;50.00
70807;DHT22;58882;52.170;5.386;2022-08-23T00:41:21;24.00;50.10
70807;DHT22;58882;52.170;5.386;2022-08-23T00:44:02;24.00;50.30
70807;DHT22;58882;52.170;5.386;2022-08-23T00:47:08;23.90;50.30
70807;DHT22;58882;52.170;5.386;2022-08-23T00:50:31;23.90;50.30
70807;DHT22;58882;52.170;5.386;2022-08-23T00:53:25;23.90;50.60
70807;DHT22;58882;52.170;5.386;2022-08-23T00:56:08;23.90;50.60
70807;DHT22;58882;52.170;5.386;2022-08-23T00:58:56;23.90;50.50
70807;DHT22;58882;52.170;5.386;2022-08-23T01:01:36;23.80;50.80
70807;DHT22;58882;52.170;5.386;2022-08-23T01:04:26;23.80;51.00
70807;DHT22;58882;52.170;5.386;2022-08-23T01:07:20;23.80;50.90
70807;DHT22;58882;52.170;5.386;2022-08-23T01:10:19;23.80;51.00
70807;DHT22;58882;52.170;5.386;2022-08-23T01:13:08;23.80;50.90
70807;DHT22;58882;52.170;5.386;2022-08-23T01:16:05;23.80;50.90
70807;DHT22;58882;52.170;5.386;2022-08-23T01:18:46;23.80;50.90
70807;DHT22;58882;52.170;5.386;2022-08-23T01:21:44;23.80;50.80
70807;DHT22;58882;52.170;5.386;2022-08-23T01:24:27;23.80;50.80
70807;DHT22;58882;52.170;5.386;2022-08-23T01:27:36;23.80;50.70
70807;DHT22;58882;52.170;5.386;2022-08-23T01:30:32;23.70;50.70
70807;DHT22;58882;52.170;5.386;2022-08-23T01:33:14;23.70;50.70
70807;DHT22;58882;52.170;5.386;2022-08-23T01:36:12;23.70;50.90
70807;DHT22;58882;52.170;5.386;2022-08-23T01:38:53;23.70;50.90
70807;DHT22;58882;52.170;5.386;2022-08-23T01:41:47;23.60;50.90
70807;DHT22;58882;52.170;5.386;2022-08-23T01:44:27;23.60;50.90
70807;DHT22;58882;52.170;5.386;2022-08-23T01:47:15;23.60;50.90
70807;DHT22;58882;52.170;5.386;2022-08-23T01:49:57;23.60;51.00
70807;DHT22;58882;52.170;5.386;2022-08-23T01:52:44;23.60;51.00
70807;DHT22;58882;52.170;5.386;2022-08-23T01:55:26;23.60;51.00
70807;DHT22;58882;52.170;5.386;2022-08-23T01:58:13;23.60;51.10
70807;DHT22;58882;52.170;5.386;2022-08-23T02:00:55;23.60;51.00
70807;DHT22;58882;52.170;5.386;2022-08-23T02:03:43;23.60;51.00
70807;DHT22;58882;52.170;5.386;2022-08-23T02:06:44;23.60;51.10
70807;DHT22;58882;52.170;5.386;2022-08-23T02:09:38;23.60;51.20
70807;DHT22;58882;52.170;5.386;2022-08-23T02:12:13;23.60;51.20
70807;DHT22;58882;52.170;5.386;2022-08-23T02:15:17;23.60;51.20
70807;DHT22;58882;52.170;5.386;2022-08-23T02:17:50;23.60;51.20
70807;DHT22;58882;52.170;5.386;2022-08-23T02:20:46;23.60;51.30
70807;DHT22;58882;52.170;5.386;2022-08-23T02:23:34;23.60;51.30
70807;DHT22;58882;52.170;5.386;2022-08-23T02:26:28;23.60;51.30
70807;DHT22;58882;52.170;5.386;2022-08-23T02:29:08;23.50;51.20
70807;DHT22;58882;52.170;5.386;2022-08-23T02:32:02;23.50;51.20
70807;DHT22;58882;52.170;5.386;2022-08-23T02:34:36;23.50;51.30
70807;DHT22;58882;52.170;5.386;2022-08-23T02:37:44;23.50;51.30
70807;DHT22;58882;52.170;5.386;2022-08-23T02:40:25;23.50;51.40
70807;DHT22;58882;52.170;5.386;2022-08-23T02:43:12;23.50;51.40
70807;DHT22;58882;52.170;5.386;2022-08-23T02:45:45;23.40;51.40
70807;DHT22;58882;52.170;5.386;2022-08-23T02:48:39;23.40;51.30
70807;DHT22;58882;52.170;5.386;2022-08-23T02:51:13;23.50;51.40
70807;DHT22;58882;52.170;5.386;2022-08-23T02:54:07;23.50;51.50
70807;DHT22;58882;52.170;5.386;2022-08-23T02:56:48;23.40;51.40
70807;DHT22;58882;52.170;5.386;2022-08-23T02:59:37;23.50;51.50
70807;DHT22;58882;52.170;5.386;2022-08-23T03:02:10;23.40;51.50
70807;DHT22;58882;52.170;5.386;2022-08-23T03:05:05;23.50;51.60
70807;DHT22;58882;52.170;5.386;2022-08-23T03:07:46;23.40;51.60
70807;DHT22;58882;52.170;5.386;2022-08-23T03:10:50;23.40;51.60
70807;DHT22;58882;52.170;5.386;2022-08-23T03:13:31;23.40;51.50
70807;DHT22;58882;52.170;5.386;2022-08-23T03:16:18;23.50;51.60
70807;DHT22;58882;52.170;5.386;2022-08-23T03:19:00;23.40;51.60
70807;DHT22;58882;52.170;5.386;2022-08-23T03:21:47;23.40;51.60
70807;DHT22;58882;52.170;5.386;2022-08-23T03:24:27;23.40;51.70
70807;DHT22;58882;52.170;5.386;2022-08-23T03:27:15;23.40;51.70
70807;DHT22;58882;52.170;5.386;2022-08-23T03:29:55;23.40;51.70
70807;DHT22;58882;52.170;5.386;2022-08-23T03:32:43;23.40;51.60
70807;DHT22;58882;52.170;5.386;2022-08-23T03:35:23;23.30;51.60
70807;DHT22;58882;52.170;5.386;2022-08-23T03:38:10;23.40;51.80
70807;DHT22;58882;52.170;5.386;2022-08-23T03:40:51;23.40;51.90
70807;DHT22;58882;52.170;5.386;2022-08-23T03:43:46;23.30;51.80
70807;DHT22;58882;52.170;5.386;2022-08-23T03:46:19;23.30;52.00
70807;DHT22;58882;52.170;5.386;2022-08-23T03:49:13;23.30;52.00
70807;DHT22;58882;52.170;5.386;2022-08-23T03:51:51;23.30;52.00
70807;DHT22;58882;52.170;5.386;2022-08-23T03:54:46;23.30;52.00
70807;DHT22;58882;52.170;5.386;2022-08-23T03:57:19;23.30;52.10
70807;DHT22;58882;52.170;5.386;2022-08-23T04:00:14;23.30;52.10
70807;DHT22;58882;52.170;5.386;2022-08-23T04:02:53;23.30;52.20
70807;DHT22;58882;52.170;5.386;2022-08-23T04:06:03;23.30;52.10
70807;DHT22;58882;52.170;5.386;2022-08-23T04:08:44;23.30;52.20
70807;DHT22;58882;52.170;5.386;2022-08-23T04:11:33;23.30;52.20
70807;DHT22;58882;52.170;5.386;2022-08-23T04:14:20;23.30;52.10
70807;DHT22;58882;52.170;5.386;2022-08-23T04:16:53;23.30;52.10
70807;DHT22;58882;52.170;5.386;2022-08-23T04:19:47;23.30;52.00
70807;DHT22;58882;52.170;5.386;2022-08-23T04:22:34;23.30;52.20
70807;DHT22;58882;52.170;5.386;2022-08-23T04:25:14;23.30;52.30
70807;DHT22;58882;52.170;5.386;2022-08-23T04:28:14;23.30;52.20
70807;DHT22;58882;52.170;5.386;2022-08-23T04:30:54;23.30;52.30
70807;DHT22;58882;52.170;5.386;2022-08-23T04:33:44;23.30;52.30
70807;DHT22;58882;52.170;5.386;2022-08-23T04:36:24;23.30;52.40
70807;DHT22;58882;52.170;5.386;2022-08-23T04:39:18;23.30;52.50
70807;DHT22;58882;52.170;5.386;2022-08-23T04:41:58;23.30;52.50
70807;DHT22;58882;52.170;5.386;2022-08-23T04:44:57;23.30;53.40
70807;DHT22;58882;52.170;5.386;2022-08-23T04:47:41;23.30;52.50
70807;DHT22;58882;52.170;5.386;2022-08-23T04:50:28;23.30;52.50
70807;DHT22;58882;52.170;5.386;2022-08-23T04:53:13;23.30;52.50
70807;DHT22;58882;52.170;5.386;2022-08-23T04:56:16;23.30;52.60
70807;DHT22;58882;52.170;5.386;2022-08-23T04:58:56;23.30;52.70
70807;DHT22;58882;52.170;5.386;2022-08-23T05:01:44;23.40;52.70
70807;DHT22;58882;52.170;5.386;2022-08-23T05:04:24;23.30;52.70
70807;DHT22;58882;52.170;5.386;2022-08-23T05:07:11;23.30;52.70
70807;DHT22;58882;52.170;5.386;2022-08-23T05:09:51;23.40;52.90
70807;DHT22;58882;52.170;5.386;2022-08-23T05:12:38;23.40;52.90
70807;DHT22;58882;52.170;5.386;2022-08-23T05:15:20;23.40;53.00
70807;DHT22;58882;52.170;5.386;2022-08-23T05:18:10;23.40;53.00
70807;DHT22;58882;52.170;5.386;2022-08-23T05:20:52;23.40;53.00
70807;DHT22;58882;52.170;5.386;2022-08-23T05:23:47;23.40;52.90
70807;DHT22;58882;52.170;5.386;2022-08-23T05:26:27;23.40;52.90
70807;DHT22;58882;52.170;5.386;2022-08-23T05:29:14;23.40;52.80
70807;DHT22;58882;52.170;5.386;2022-08-23T05:32:08;23.40;52.80
70807;DHT22;58882;52.170;5.386;2022-08-23T05:34:42;23.50;52.80
70807;DHT22;58882;52.170;5.386;2022-08-23T05:37:37;23.50;52.80
70807;DHT22;58882;52.170;5.386;2022-08-23T05:40:10;23.50;52.80
70807;DHT22;58882;52.170;5.386;2022-08-23T05:43:12;23.50;52.80
70807;DHT22;58882;52.170;5.386;2022-08-23T05:45:45;23.50;52.80
70807;DHT22;58882;52.170;5.386;2022-08-23T05:48:45;23.60;52.70
70807;DHT22;58882;52.170;5.386;2022-08-23T05:51:31;23.60;52.90
70807;DHT22;58882;52.170;5.386;2022-08-23T05:54:18;23.60;52.80
70807;DHT22;58882;52.170;5.386;2022-08-23T05:57:19;23.60;52.80
70807;DHT22;58882;52.170;5.386;2022-08-23T06:00:09;23.70;52.70
70807;DHT22;58882;52.170;5.386;2022-08-23T06:03:11;23.70;52.90
70807;DHT22;58882;52.170;5.386;2022-08-23T06:05:58;23.70;52.90
70807;DHT22;58882;52.170;5.386;2022-08-23T06:08:41;23.70;52.80
70807;DHT22;58882;52.170;5.386;2022-08-23T06:11:29;23.70;52.80
70807;DHT22;58882;52.170;5.386;2022-08-23T06:14:09;23.80;52.90
70807;DHT22;58882;52.170;5.386;2022-08-23T06:16:56;23.80;52.80
70807;DHT22;58882;52.170;5.386;2022-08-23T06:19:36;23.80;52.80
70807;DHT22;58882;52.170;5.386;2022-08-23T06:22:39;23.90;52.80
70807;DHT22;58882;52.170;5.386;2022-08-23T06:25:37;23.90;52.80
70807;DHT22;58882;52.170;5.386;2022-08-23T06:28:19;24.00;52.70
70807;DHT22;58882;52.170;5.386;2022-08-23T06:31:06;24.00;52.50
70807;DHT22;58882;52.170;5.386;2022-08-23T06:33:53;24.00;52.60
70807;DHT22;58882;52.170;5.386;2022-08-23T06:37:12;24.00;52.50
70807;DHT22;58882;52.170;5.386;2022-08-23T06:40:02;24.10;52.50
70807;DHT22;58882;52.170;5.386;2022-08-23T06:43:03;24.20;52.30
70807;DHT22;58882;52.170;5.386;2022-08-23T06:45:50;24.20;52.10
70807;DHT22;58882;52.170;5.386;2022-08-23T06:48:46;24.20;52.00
70807;DHT22;58882;52.170;5.386;2022-08-23T06:51:32;24.20;52.00
70807;DHT22;58882;52.170;5.386;2022-08-23T06:54:37;24.30;51.90
70807;DHT22;58882;52.170;5.386;2022-08-23T06:57:27;24.30;51.80
70807;DHT22;58882;52.170;5.386;2022-08-23T07:00:33;24.40;51.70
70807;DHT22;58882;52.170;5.386;2022-08-23T07:03:24;24.40;51.70
70807;DHT22;58882;52.170;5.386;2022-08-23T07:06:47;24.50;52.60
70807;DHT22;58882;52.170;5.386;2022-08-23T07:09:20;24.60;51.60
70807;DHT22;58882;52.170;5.386;2022-08-23T07:12:14;24.60;51.50
70807;DHT22;58882;52.170;5.386;2022-08-23T07:14:54;24.70;51.40
70807;DHT22;58882;52.170;5.386;2022-08-23T07:17:42;24.80;51.20
70807;DHT22;58882;52.170;5.386;2022-08-23T07:20:22;24.90;51.00
70807;DHT22;58882;52.170;5.386;2022-08-23T07:23:16;25.00;50.90
70807;DHT22;58882;52.170;5.386;2022-08-23T07:26:14;25.10;50.60
70807;DHT22;58882;52.170;5.386;2022-08-23T07:28:55;25.30;50.40
70807;DHT22;58882;52.170;5.386;2022-08-23T07:31:46;25.50;50.30
70807;DHT22;58882;52.170;5.386;2022-08-23T07:34:28;25.80;49.80
70807;DHT22;58882;52.170;5.386;2022-08-23T07:37:15;26.20;49.00
70807;DHT22;58882;52.170;5.386;2022-08-23T07:39:56;26.60;48.00
70807;DHT22;58882;52.170;5.386;2022-08-23T07:42:43;26.80;47.30
70807;DHT22;58882;52.170;5.386;2022-08-23T07:45:23;27.10;46.70
70807;DHT22;58882;52.170;5.386;2022-08-23T07:48:11;27.40;46.10
70807;DHT22;58882;52.170;5.386;2022-08-23T07:51:15;27.70;45.40
70807;DHT22;58882;52.170;5.386;2022-08-23T07:54:04;28.10;44.70
70807;DHT22;58882;52.170;5.386;2022-08-23T07:57:00;28.30;44.00
70807;DHT22;58882;52.170;5.386;2022-08-23T08:00:01;28.60;43.60
70807;DHT22;58882;52.170;5.386;2022-08-23T08:02:52;28.80;43.00
70807;DHT22;58882;52.170;5.386;2022-08-23T08:05:55;29.10;42.70
70807;DHT22;58882;52.170;5.386;2022-08-23T08:08:37;29.30;42.00
70807;DHT22;58882;52.170;5.386;2022-08-23T08:11:32;29.40;41.60
70807;DHT22;58882;52.170;5.386;2022-08-23T08:14:17;29.60;41.20
70807;DHT22;58882;52.170;5.386;2022-08-23T08:17:05;29.80;40.90
70807;DHT22;58882;52.170;5.386;2022-08-23T08:20:06;29.90;40.50
70807;DHT22;58882;52.170;5.386;2022-08-23T08:23:18;30.00;40.20
70807;DHT22;58882;52.170;5.386;2022-08-23T08:26:27;30.10;39.80
70807;DHT22;58882;52.170;5.386;2022-08-23T08:29:15;30.30;39.60
70807;DHT22;58882;52.170;5.386;2022-08-23T08:31:55;30.40;39.40
70807;DHT22;58882;52.170;5.386;2022-08-23T08:34:42;30.40;39.20
70807;DHT22;58882;52.170;5.386;2022-08-23T08:37:22;30.40;39.00
70807;DHT22;58882;52.170;5.386;2022-08-23T08:40:10;30.50;39.00
70807;DHT22;58882;52.170;5.386;2022-08-23T08:49:31;30.70;38.60
70807;DHT22;58882;52.170;5.386;2022-08-23T08:52:37;30.70;38.30
70807;DHT22;58882;52.170;5.386;2022-08-23T08:55:26;30.60;38.30
70807;DHT22;58882;52.170;5.386;2022-08-23T08:58:50;30.40;39.00
70807;DHT22;58882;52.170;5.386;2022-08-23T09:01:28;29.90;39.40
70807;DHT22;58882;52.170;5.386;2022-08-23T09:04:28;29.70;39.80
70807;DHT22;58882;52.170;5.386;2022-08-23T09:07:25;29.40;40.20
70807;DHT22;58882;52.170;5.386;2022-08-23T09:17:01;29.20;40.70
70807;DHT22;58882;52.170;5.386;2022-08-23T09:19:44;29.20;40.80
70807;DHT22;58882;52.170;5.386;2022-08-23T09:22:43;29.40;40.60
70807;DHT22;58882;52.170;5.386;2022-08-23T09:25:39;29.50;40.30
70807;DHT22;58882;52.170;5.386;2022-08-23T09:28:24;29.50;40.20
70807;DHT22;58882;52.170;5.386;2022-08-23T09:31:50;29.60;40.20
70807;DHT22;58882;52.170;5.386;2022-08-23T09:37:23;30.00;39.60
70807;DHT22;58882;52.170;5.386;2022-08-23T09:40:35;30.00;39.40
70807;DHT22;58882;52.170;5.386;2022-08-23T09:43:26;30.00;39.40
70807;DHT22;58882;52.170;5.386;2022-08-23T09:46:06;29.80;39.60
70807;DHT22;58882;52.170;5.386;2022-08-23T09:52:17;29.60;40.10
70807;DHT22;58882;52.170;5.386;2022-08-23T09:55:35;29.70;40.00
70807;DHT22;58882;52.170;5.386;2022-08-23T10:01:30;30.20;39.30
70807;DHT22;58882;52.170;5.386;2022-08-23T10:04:42;30.40;39.10
70807;DHT22;58882;52.170;5.386;2022-08-23T10:07:42;30.60;38.90
70807;DHT22;58882;52.170;5.386;2022-08-23T10:10:28;30.80;38.40
70807;DHT22;58882;52.170;5.386;2022-08-23T10:13:16;31.00;38.00
70807;DHT22;58882;52.170;5.386;2022-08-23T10:16:15;31.10;37.80
70807;DHT22;58882;52.170;5.386;2022-08-23T10:22:20;31.20;37.40
70807;DHT22;58882;52.170;5.386;2022-08-23T10:25:35;31.30;37.40
70807;DHT22;58882;52.170;5.386;2022-08-23T10:28:38;31.10;37.50
70807;DHT22;58882;52.170;5.386;2022-08-23T10:38:26;31.10;37.40
70807;DHT22;58882;52.170;5.386;2022-08-23T10:44:58;30.70;37.90
70807;DHT22;58882;52.170;5.386;2022-08-23T10:47:52;30.50;38.30
70807;DHT22;58882;52.170;5.386;2022-08-23T10:50:57;30.40;38.60
70807;DHT22;58882;52.170;5.386;2022-08-23T10:53:40;30.40;38.60
70807;DHT22;58882;52.170;5.386;2022-08-23T10:56:27;30.70;38.20
70807;DHT22;58882;52.170;5.386;2022-08-23T10:59:17;30.90;37.70
70807;DHT22;58882;52.170;5.386;2022-08-23T11:02:33;31.00;37.40
70807;DHT22;58882;52.170;5.386;2022-08-23T11:05:29;31.10;37.30
70807;DHT22;58882;52.170;5.386;2022-08-23T11:08:33;31.20;37.00
70807;DHT22;58882;52.170;5.386;2022-08-23T11:17:27;31.20;36.70
70807;DHT22;58882;52.170;5.386;2022-08-23T11:23:57;31.20;36.50
70807;DHT22;58882;52.170;5.386;2022-08-23T11:27:09;31.00;36.70
70807;DHT22;58882;52.170;5.386;2022-08-23T11:34:08;31.00;36.50
70807;DHT22;58882;52.170;5.386;2022-08-23T11:36:37;31.00;36.70
70807;DHT22;58882;52.170;5.386;2022-08-23T11:45:45;30.70;36.80
70807;DHT22;58882;52.170;5.386;2022-08-23T11:48:41;30.60;37.00
70807;DHT22;58882;52.170;5.386;2022-08-23T11:58:06;30.80;36.80
70807;DHT22;58882;52.170;5.386;2022-08-23T12:00:56;30.80;36.70
70807;DHT22;58882;52.170;5.386;2022-08-23T12:04:03;30.80;36.50
70807;DHT22;58882;52.170;5.386;2022-08-23T12:06:51;30.70;36.60
70807;DHT22;58882;52.170;5.386;2022-08-23T12:12:36;30.40;37.00
70807;DHT22;58882;52.170;5.386;2022-08-23T12:15:19;30.40;37.00
70807;DHT22;58882;52.170;5.386;2022-08-23T12:18:36;30.50;36.90
70807;DHT22;58882;52.170;5.386;2022-08-23T12:21:41;30.40;36.90
70807;DHT22;58882;52.170;5.386;2022-08-23T12:24:51;30.20;37.20
70807;DHT22;58882;52.170;5.386;2022-08-23T12:27:49;30.20;37.30
70807;DHT22;58882;52.170;5.386;2022-08-23T12:30:38;30.20;37.20
70807;DHT22;58882;52.170;5.386;2022-08-23T12:34:14;30.20;38.10
70807;DHT22;58882;52.170;5.386;2022-08-23T12:40:00;30.20;38.30
70807;DHT22;58882;52.170;5.386;2022-08-23T12:42:42;30.20;38.30
70807;DHT22;58882;52.170;5.386;2022-08-23T12:45:43;30.20;37.40
70807;DHT22;58882;52.170;5.386;2022-08-23T12:48:29;30.10;37.40
70807;DHT22;58882;52.170;5.386;2022-08-23T12:51:23;30.00;37.50
70807;DHT22;58882;52.170;5.386;2022-08-23T12:54:12;29.90;37.50
70807;DHT22;58882;52.170;5.386;2022-08-23T12:57:24;29.80;37.60
70807;DHT22;58882;52.170;5.386;2022-08-23T13:00:32;29.80;37.70
70807;DHT22;58882;52.170;5.386;2022-08-23T13:03:31;29.60;37.80
70807;DHT22;58882;52.170;5.386;2022-08-23T13:06:17;29.50;38.20
70807;DHT22;58882;52.170;5.386;2022-08-23T13:09:11;29.30;38.30
70807;DHT22;58882;52.170;5.386;2022-08-23T13:11:52;29.20;38.60
70807;DHT22;58882;52.170;5.386;2022-08-23T13:14:51;29.20;38.80
70807;DHT22;58882;52.170;5.386;2022-08-23T13:17:35;29.10;38.90
70807;DHT22;58882;52.170;5.386;2022-08-23T13:20:23;29.10;38.90
70807;DHT22;58882;52.170;5.386;2022-08-23T13:23:05;29.00;39.00
70807;DHT22;58882;52.170;5.386;2022-08-23T13:26:27;29.00;39.10
70807;DHT22;58882;52.170;5.386;2022-08-23T13:29:03;28.90;39.30
70807;DHT22;58882;52.170;5.386;2022-08-23T13:32:03;28.90;39.30
70807;DHT22;58882;52.170;5.386;2022-08-23T13:34:45;28.80;39.50
70807;DHT22;58882;52.170;5.386;2022-08-23T13:37:44;28.70;39.60
70807;DHT22;58882;52.170;5.386;2022-08-23T13:40:29;28.70;39.70
70807;DHT22;58882;52.170;5.386;2022-08-23T13:43:36;28.60;39.70
70807;DHT22;58882;52.170;5.386;2022-08-23T13:46:32;28.60;39.90
70807;DHT22;58882;52.170;5.386;2022-08-23T13:49:16;28.50;40.00
70807;DHT22;58882;52.170;5.386;2022-08-23T13:52:09;28.50;40.10
70807;DHT22;58882;52.170;5.386;2022-08-23T13:55:09;28.40;40.20
70807;DHT22;58882;52.170;5.386;2022-08-23T13:57:57;28.40;40.20
70807;DHT22;58882;52.170;5.386;2022-08-23T14:00:37;28.30;40.30
70807;DHT22;58882;52.170;5.386;2022-08-23T14:03:33;28.30;40.50
70807;DHT22;58882;52.170;5.386;2022-08-23T14:06:13;28.30;41.60
70807;DHT22;58882;52.170;5.386;2022-08-23T14:09:00;28.20;40.70
70807;DHT22;58882;52.170;5.386;2022-08-23T14:11:40;28.20;40.80
70807;DHT22;58882;52.170;5.386;2022-08-23T14:14:29;28.20;40.90
70807;DHT22;58882;52.170;5.386;2022-08-23T14:17:11;28.10;40.90
70807;DHT22;58882;52.170;5.386;2022-08-23T14:19:59;28.10;41.00
70807;DHT22;58882;52.170;5.386;2022-08-23T14:22:53;28.00;41.10
70807;DHT22;58882;52.170;5.386;2022-08-23T14:25:54;28.00;41.20
70807;DHT22;58882;52.170;5.386;2022-08-23T14:28:28;28.00;41.20
70807;DHT22;58882;52.170;5.386;2022-08-23T14:31:23;27.90;41.20
70807;DHT22;58882;52.170;5.386;2022-08-23T14:34:03;27.90;41.30
70807;DHT22;58882;52.170;5.386;2022-08-23T14:36:57;27.90;41.40
70807;DHT22;58882;52.170;5.386;2022-08-23T14:39:57;27.80;41.50
70807;DHT22;58882;52.170;5.386;2022-08-23T14:42:46;27.80;41.50
70807;DHT22;58882;52.170;5.386;2022-08-23T14:45:26;27.80;41.60
70807;DHT22;58882;52.170;5.386;2022-08-23T14:48:13;27.80;41.70
70807;DHT22;58882;52.170;5.386;2022-08-23T14:50:54;27.70;41.70
70807;DHT22;58882;52.170;5.386;2022-08-23T14:53:49;27.70;41.80
70807;DHT22;58882;52.170;5.386;2022-08-23T14:56:22;27.70;41.90
70807;DHT22;58882;52.170;5.386;2022-08-23T14:59:16;27.70;42.00
70807;DHT22;58882;52.170;5.386;2022-08-23T15:01:51;27.60;41.90
70807;DHT22;58882;52.170;5.386;2022-08-23T15:04:46;27.60;42.00
70807;DHT22;58882;52.170;5.386;2022-08-23T15:07:19;27.60;42.10
70807;DHT22;58882;52.170;5.386;2022-08-23T15:10:14;27.60;42.10
70807;DHT22;58882;52.170;5.386;2022-08-23T15:13:07;27.60;42.20
70807;DHT22;58882;52.170;5.386;2022-08-23T15:16:15;27.50;42.20
70807;DHT22;58882;52.170;5.386;2022-08-23T15:18:49;27.50;42.30
70807;DHT22;58882;52.170;5.386;2022-08-23T15:21:43;27.60;42.20
70807;DHT22;58882;52.170;5.386;2022-08-23T15:24:16;27.60;42.10
70807;DHT22;58882;52.170;5.386;2022-08-23T15:27:10;27.60;42.00
70807;DHT22;58882;52.170;5.386;2022-08-23T15:29:50;27.60;42.10
70807;DHT22;58882;52.170;5.386;2022-08-23T15:32:37;27.50;42.10
70807;DHT22;58882;52.170;5.386;2022-08-23T15:35:33;27.50;42.20
70807;DHT22;58882;52.170;5.386;2022-08-23T15:38:23;27.50;42.30
70807;DHT22;58882;52.170;5.386;2022-08-23T15:41:04;27.50;42.30
70807;DHT22;58882;52.170;5.386;2022-08-23T15:43:51;27.50;42.40
70807;DHT22;58882;52.170;5.386;2022-08-23T15:46:31;27.50;42.70
70807;DHT22;58882;52.170;5.386;2022-08-23T15:49:18;27.50;42.80
70807;DHT22;58882;52.170;5.386;2022-08-23T15:51:59;27.40;42.70
70807;DHT22;58882;52.170;5.386;2022-08-23T15:54:46;27.40;42.70
70807;DHT22;58882;52.170;5.386;2022-08-23T15:57:27;27.40;42.80
70807;DHT22;58882;52.170;5.386;2022-08-23T16:00:22;27.40;42.90
70807;DHT22;58882;52.170;5.386;2022-08-23T16:03:02;27.40;43.00
70807;DHT22;58882;52.170;5.386;2022-08-23T16:06:00;27.40;43.10
70807;DHT22;58882;52.170;5.386;2022-08-23T16:08:44;27.40;43.20
70807;DHT22;58882;52.170;5.386;2022-08-23T16:11:31;27.40;43.20
70807;DHT22;58882;52.170;5.386;2022-08-23T16:14:11;27.30;43.20
70807;DHT22;58882;52.170;5.386;2022-08-23T16:16:59;27.30;43.30
70807;DHT22;58882;52.170;5.386;2022-08-23T16:19:32;27.30;43.50
70807;DHT22;58882;52.170;5.386;2022-08-23T16:22:26;27.30;43.70
70807;DHT22;58882;52.170;5.386;2022-08-23T16:25:13;27.30;43.80
70807;DHT22;58882;52.170;5.386;2022-08-23T16:27:53;27.20;44.00
70807;DHT22;58882;52.170;5.386;2022-08-23T16:30:47;27.20;44.10
70807;DHT22;58882;52.170;5.386;2022-08-23T16:33:20;27.20;45.30
70807;DHT22;58882;52.170;5.386;2022-08-23T16:36:15;27.20;44.40
70807;DHT22;58882;52.170;5.386;2022-08-23T16:39:02;27.20;44.50
70807;DHT22;58882;52.170;5.386;2022-08-23T16:41:49;27.20;44.70
70807;DHT22;58882;52.170;5.386;2022-08-23T16:44:31;27.20;44.80
70807;DHT22;58882;52.170;5.386;2022-08-23T16:47:18;27.10;44.90
70807;DHT22;58882;52.170;5.386;2022-08-23T16:49:58;27.10;45.10
70807;DHT22;58882;52.170;5.386;2022-08-23T16:52:45;27.10;45.20
70807;DHT22;58882;52.170;5.386;2022-08-23T16:55:25;27.10;45.30
70807;DHT22;58882;52.170;5.386;2022-08-23T16:58:12;27.10;45.40
70807;DHT22;58882;52.170;5.386;2022-08-23T17:00:52;27.10;45.60
70807;DHT22;58882;52.170;5.386;2022-08-23T17:03:40;27.10;45.70
70807;DHT22;58882;52.170;5.386;2022-08-23T17:06:20;27.10;45.70
70807;DHT22;58882;52.170;5.386;2022-08-23T17:09:08;27.10;45.80
70807;DHT22;58882;52.170;5.386;2022-08-23T17:11:47;27.10;45.90
70807;DHT22;58882;52.170;5.386;2022-08-23T17:14:37;27.10;45.90
70807;DHT22;58882;52.170;5.386;2022-08-23T17:17:17;27.00;46.00
70807;DHT22;58882;52.170;5.386;2022-08-23T17:20:05;27.00;46.10
70807;DHT22;58882;52.170;5.386;2022-08-23T17:22:46;27.10;46.30
70807;DHT22;58882;52.170;5.386;2022-08-23T17:25:35;27.00;46.30
70807;DHT22;58882;52.170;5.386;2022-08-23T17:28:16;27.00;46.40
70807;DHT22;58882;52.170;5.386;2022-08-23T17:31:03;27.00;46.40
70807;DHT22;58882;52.170;5.386;2022-08-23T17:33:43;27.00;46.50
70807;DHT22;58882;52.170;5.386;2022-08-23T17:36:48;27.00;46.50
70807;DHT22;58882;52.170;5.386;2022-08-23T17:39:24;27.00;47.60
70807;DHT22;58882;52.170;5.386;2022-08-23T17:42:19;27.00;46.60
70807;DHT22;58882;52.170;5.386;2022-08-23T17:44:59;27.00;47.70
70807;DHT22;58882;52.170;5.386;2022-08-23T17:47:47;26.90;46.70
70807;DHT22;58882;52.170;5.386;2022-08-23T17:50:26;27.00;46.90
70807;DHT22;58882;52.170;5.386;2022-08-23T17:53:14;27.00;46.90
70807;DHT22;58882;52.170;5.386;2022-08-23T17:55:54;27.00;46.90
70807;DHT22;58882;52.170;5.386;2022-08-23T17:58:44;26.90;47.00
70807;DHT22;58882;52.170;5.386;2022-08-23T18:01:25;26.90;47.00
70807;DHT22;58882;52.170;5.386;2022-08-23T18:04:11;26.90;47.10
70807;DHT22;58882;52.170;5.386;2022-08-23T18:06:51;26.90;47.20
70807;DHT22;58882;52.170;5.386;2022-08-23T18:09:38;26.90;47.20
70807;DHT22;58882;52.170;5.386;2022-08-23T18:12:20;26.90;47.30
70807;DHT22;58882;52.170;5.386;2022-08-23T18:15:09;26.90;47.50
70807;DHT22;58882;52.170;5.386;2022-08-23T18:17:49;26.90;47.60
70807;DHT22;58882;52.170;5.386;2022-08-23T18:20:37;26.90;47.60
70807;DHT22;58882;52.170;5.386;2022-08-23T18:23:17;26.80;47.60
70807;DHT22;58882;52.170;5.386;2022-08-23T18:26:12;26.90;47.80
70807;DHT22;58882;52.170;5.386;2022-08-23T18:29:15;26.90;48.00
70807;DHT22;58882;52.170;5.386;2022-08-23T18:32:05;26.80;48.00
70807;DHT22;58882;52.170;5.386;2022-08-23T18:34:38;26.80;48.20
70807;DHT22;58882;52.170;5.386;2022-08-23T18:37:32;26.80;49.30
70807;DHT22;58882;52.170;5.386;2022-08-23T18:40:13;26.80;48.40
70807;DHT22;58882;52.170;5.386;2022-08-23T18:43:00;26.80;48.50
70807;DHT22;58882;52.170;5.386;2022-08-23T18:45:33;26.80;48.70
70807;DHT22;58882;52.170;5.386;2022-08-23T18:48:27;26.80;48.70
70807;DHT22;58882;52.170;5.386;2022-08-23T18:51:29;26.80;48.90
70807;DHT22;58882;52.170;5.386;2022-08-23T18:54:09;26.80;49.00
70807;DHT22;58882;52.170;5.386;2022-08-23T18:56:56;26.80;49.00
70807;DHT22;58882;52.170;5.386;2022-08-23T18:59:36;26.80;49.00